Time;durP1;ratioP1;P1;durP2;ratioP2;P2;SDS_P1;SDS_P2;PMS_P1;PMS_P2;Temp;Humidity;BMP_temperature;BMP_pressure;BME280_temperature;BME280_humidity;BME280_pressure;Samples;Min_cycle;Max_cycle;Signal;HPM_P1;HPM_P2
2021/08/22 06:40:40;;;;;;;7.60;6.10;;;;;;;17.72;100.00;96054.84;1037738;28;20049;-74
2021/08/22 06:41:10;;;;;;;7.95;6.07;;;;;;;17.76;100.00;96051.31;1024524;28;20130;-76
2021/08/22 06:41:41;;;;;;;9.48;6.40;;;;;;;17.78;100.00;96037.75;1018460;29;20023;-76
2021/08/22 06:42:11;;;;;;;9.00;6.93;;;;;;;17.91;100.00;96052.84;1016084;29;20128;-75
2021/08/22 06:42:42;;;;;;;8.27;6.70;;;;;;;17.88;100.00;96051.56;1014748;29;20041;-76
2021/08/22 06:43:12;;;;;;;7.40;6.38;;;;;;;17.88;100.00;96056.09;1017109;29;20140;-76
2021/08/22 06:43:43;;;;;;;7.18;6.43;;;;;;;17.74;100.00;96037.53;1018147;29;20378;-76
2021/08/22 06:44:13;;;;;;;8.13;7.13;;;;;;;17.79;100.00;96047.28;1014661;29;20020;-74
2021/08/22 06:44:44;;;;;;;10.25;7.00;;;;;;;17.89;100.00;96042.50;1014447;29;20072;-75
2021/08/22 06:45:14;;;;;;;10.82;6.68;;;;;;;17.87;100.00;96038.56;1014471;28;20088;-76
2021/08/22 06:45:45;;;;;;;8.45;6.40;;;;;;;17.78;100.00;96045.72;1018648;29;20339;-76
2021/08/22 06:46:15;;;;;;;10.57;6.28;;;;;;;17.76;100.00;96043.34;1018337;29;20023;-76
2021/08/22 06:46:45;;;;;;;7.50;6.47;;;;;;;17.72;100.00;96042.34;1018310;29;20028;-76
2021/08/22 06:47:16;;;;;;;8.52;6.35;;;;;;;17.62;100.00;96032.75;1022393;28;20023;-76
2021/08/22 06:47:49;;;;;;;7.60;6.30;;;;;;;17.65;100.00;96042.75;1018476;29;20397;-76
2021/08/22 06:48:19;;;;;;;6.55;5.82;;;;;;;17.60;100.00;96029.59;1017504;29;20020;-75
2021/08/22 06:48:50;;;;;;;8.65;6.25;;;;;;;17.56;100.00;96015.34;1018439;29;20031;-75
2021/08/22 06:49:20;;;;;;;8.45;6.07;;;;;;;17.79;100.00;96037.44;1026431;28;20477;-76
2021/08/22 06:49:51;;;;;;;9.27;6.82;;;;;;;17.87;100.00;96038.56;1026050;28;20052;-77
2021/08/22 06:50:24;;;;;;;9.75;6.13;;;;;;;17.85;100.00;96046.06;1022258;29;20110;-77
2021/08/22 06:50:55;;;;;;;6.68;5.53;;;;;;;18.03;100.00;96037.13;1020425;29;20115;-76
2021/08/22 06:51:25;;;;;;;8.57;5.60;;;;;;;17.95;100.00;96035.22;1022650;29;20061;-76
2021/08/22 06:51:56;;;;;;;10.15;6.40;;;;;;;18.11;100.00;96044.38;1018343;29;20028;-76
2021/08/22 06:52:26;;;;;;;12.02;6.60;;;;;;;18.36;100.00;96039.50;1022588;29;20039;-76
2021/08/22 06:52:57;;;;;;;9.10;5.88;;;;;;;18.61;100.00;96035.41;1021286;28;20019;-76
2021/08/22 06:53:27;;;;;;;7.55;5.75;;;;;;;18.84;100.00;96033.50;1022440;28;20260;-76
2021/08/22 06:53:58;;;;;;;8.32;5.15;;;;;;;18.87;100.00;96022.25;1021551;29;20122;-75
2021/08/22 06:54:29;;;;;;;7.25;5.60;;;;;;;19.24;100.00;96041.44;1016535;29;20024;-75
2021/08/22 06:54:59;;;;;;;8.68;5.32;;;;;;;19.23;100.00;96037.22;1017884;29;20024;-76
2021/08/22 06:55:30;;;;;;;7.90;5.78;;;;;;;19.47;100.00;96029.56;1020121;29;20091;-76
2021/08/22 06:56:00;;;;;;;7.88;5.38;;;;;;;19.46;100.00;96016.56;1022356;28;20560;-76
2021/08/22 06:56:32;;;;;;;6.57;4.95;;;;;;;19.52;100.00;96021.44;1022517;29;20027;-76
2021/08/22 06:57:02;;;;;;;5.53;4.90;;;;;;;19.31;100.00;96009.81;1021398;28;20054;-76
2021/08/22 06:57:33;;;;;;;6.07;5.18;;;;;;;19.76;100.00;96028.19;1018684;29;20505;-77
2021/08/22 06:58:03;;;;;;;11.65;4.82;;;;;;;19.78;100.00;96018.00;1018220;29;20115;-77
2021/08/22 06:58:34;;;;;;;5.70;5.05;;;;;;;20.12;100.00;96014.53;1019769;29;20514;-77
2021/08/22 06:59:04;;;;;;;8.00;4.95;;;;;;;20.49;100.00;96021.00;1022340;28;20024;-77
2021/08/22 06:59:35;;;;;;;5.03;4.53;;;;;;;20.45;100.00;96003.28;1024036;28;20467;-77
2021/08/22 07:00:07;;;;;;;5.97;4.65;;;;;;;20.77;100.00;96015.28;1018942;29;20019;-76
2021/08/22 07:00:37;;;;;;;5.38;4.60;;;;;;;20.84;100.00;95994.22;1018395;29;20454;-76
2021/08/22 07:01:07;;;;;;;5.05;4.22;;;;;;;21.08;100.00;96003.50;1014702;29;20020;-77
2021/08/22 07:01:38;;;;;;;7.20;4.40;;;;;;;21.20;100.00;96006.28;1014630;29;20061;-77
2021/08/22 07:02:10;;;;;;;5.13;4.13;;;;;;;21.21;100.00;96005.16;1018307;29;20026;-77
2021/08/22 07:02:42;;;;;;;4.55;4.07;;;;;;;21.31;100.00;96001.31;1018630;29;20062;-76
2021/08/22 07:03:13;;;;;;;4.75;4.20;;;;;;;21.25;100.00;95997.28;1021024;29;20027;-77
2021/08/22 07:03:43;;;;;;;7.72;3.72;;;;;;;21.07;100.00;95999.28;1022643;28;20027;-76
2021/08/22 07:04:14;;;;;;;4.35;3.95;;;;;;;20.76;100.00;95996.91;1026668;28;20039;-76
2021/08/22 07:04:44;;;;;;;7.68;4.25;;;;;;;20.81;100.00;95994.88;1026336;28;20027;-76
2021/08/22 07:05:15;;;;;;;5.28;4.38;;;;;;;20.99;100.00;95995.53;1026485;28;20030;-77
2021/08/22 07:05:48;;;;;;;4.40;4.00;;;;;;;20.97;100.00;95984.44;1026566;28;20510;-76
2021/08/22 07:06:18;;;;;;;4.60;4.10;;;;;;;20.99;100.00;95992.88;1021534;28;20027;-76
2021/08/22 07:06:49;;;;;;;5.78;4.10;;;;;;;20.61;100.00;95991.03;1023166;28;20015;-77
2021/08/22 07:07:19;;;;;;;4.47;3.90;;;;;;;20.54;100.00;95990.75;1020745;28;20402;-76
2021/08/22 07:07:50;;;;;;;5.07;3.78;;;;;;;20.56;100.00;96004.56;1026687;28;20050;-77
2021/08/22 07:08:20;;;;;;;4.70;3.42;;;;;;;19.87;100.00;95994.03;1018273;29;20024;-76
2021/08/22 07:08:51;;;;;;;4.88;3.65;;;;;;;19.71;100.00;95996.41;1018259;29;20450;-77
2021/08/22 07:09:21;;;;;;;4.20;3.72;;;;;;;19.66;100.00;95997.34;1014832;29;20032;-76
2021/08/22 07:09:52;;;;;;;4.80;3.70;;;;;;;19.73;100.00;96002.97;1014727;29;20103;-76
2021/08/22 07:10:23;;;;;;;4.80;3.67;;;;;;;19.75;100.00;96005.31;1015611;29;20028;-74
2021/08/22 07:10:53;;;;;;;4.45;3.50;;;;;;;19.47;100.00;96002.94;1014592;29;20099;-76
2021/08/22 07:11:23;;;;;;;4.65;3.85;;;;;;;19.31;100.00;95994.66;1018335;29;20071;-76
2021/08/22 07:11:54;;;;;;;4.57;3.45;;;;;;;18.98;100.00;95999.63;1014601;29;20467;-77
2021/08/22 07:12:25;;;;;;;3.78;3.47;;;;;;;18.86;100.00;95996.75;1018644;29;20103;-77
2021/08/22 07:12:55;;;;;;;4.32;3.90;;;;;;;19.07;100.00;96004.94;1014828;29;20028;-76
2021/08/22 07:13:26;;;;;;;3.90;3.30;;;;;;;18.98;100.00;96001.47;1018603;29;20502;-79
2021/08/22 07:13:56;;;;;;;6.07;4.07;;;;;;;18.96;100.00;96004.44;1021361;28;20047;-75
2021/08/22 07:14:27;;;;;;;3.70;3.08;;;;;;;19.11;100.00;96005.09;1019399;29;20028;-75
2021/08/22 07:14:57;;;;;;;4.13;3.72;;;;;;;19.06;100.00;96001.50;1018770;29;20099;-75
2021/08/22 07:15:27;;;;;;;4.32;3.92;;;;;;;19.10;100.00;96006.19;1018873;28;20032;-75
2021/08/22 07:15:58;;;;;;;4.30;3.90;;;;;;;19.04;100.00;96006.31;1027174;28;20142;-75
2021/08/22 07:16:28;;;;;;;4.32;3.78;;;;;;;19.13;100.00;96000.25;1022677;28;20019;-75
2021/08/22 07:16:59;;;;;;;5.88;3.92;;;;;;;19.15;100.00;96000.72;1022573;28;20063;-75
2021/08/22 07:17:29;;;;;;;5.28;3.90;;;;;;;19.04;100.00;96002.88;1022597;28;20034;-76
2021/08/22 07:18:03;;;;;;;5.45;3.55;;;;;;;18.99;100.00;95997.72;1026343;28;20259;-78
2021/08/22 07:18:33;;;;;;;5.72;3.50;;;;;;;19.04;100.00;96000.22;1027505;28;20030;-78
2021/08/22 07:19:04;;;;;;;4.97;3.97;;;;;;;19.03;100.00;95993.34;1022649;29;20046;-78
2021/08/22 07:19:36;;;;;;;4.85;3.85;;;;;;;19.04;100.00;96013.53;1018968;29;20504;-77
2021/08/22 07:20:07;;;;;;;4.90;3.92;;;;;;;19.10;100.00;96000.88;1022855;29;20386;-77
2021/08/22 07:20:38;;;;;;;4.40;3.70;;;;;;;19.17;100.00;96003.84;1022674;29;20034;-77
2021/08/22 07:21:11;;;;;;;4.65;3.25;;;;;;;19.19;100.00;96014.97;1018661;29;20074;-78
2021/08/22 07:21:44;;;;;;;4.88;3.92;;;;;;;18.92;100.00;95982.22;1019082;29;20054;-77
2021/08/22 07:22:16;;;;;;;3.47;3.17;;;;;;;19.19;100.00;95991.03;1027589;28;20053;-77
2021/08/22 07:22:46;;;;;;;5.75;3.50;;;;;;;19.33;100.00;95991.66;1020206;29;20031;-78
2021/08/22 07:23:17;;;;;;;4.20;3.80;;;;;;;19.30;100.00;95990.41;1022114;29;20075;-79
2021/08/22 07:23:47;;;;;;;4.57;3.70;;;;;;;19.39;100.00;95985.09;1022796;29;20232;-77
2021/08/22 07:24:18;;;;;;;4.82;3.95;;;;;;;19.50;100.00;96006.88;1030026;28;20026;-77
2021/08/22 07:24:48;;;;;;;5.20;3.78;;;;;;;19.53;100.00;95998.25;1024053;28;20034;-77
2021/08/22 07:25:21;;;;;;;4.68;3.42;;;;;;;19.42;100.00;95989.81;1022209;29;20035;-76
2021/08/22 07:25:52;;;;;;;3.47;3.17;;;;;;;19.53;100.00;96007.03;1022470;29;20102;-76
2021/08/22 07:26:23;;;;;;;4.13;3.42;;;;;;;19.30;100.00;95990.41;1019730;29;20031;-76
2021/08/22 07:26:53;;;;;;;4.57;3.63;;;;;;;19.41;100.00;96008.72;1026558;28;20102;-78
2021/08/22 07:27:24;;;;;;;3.65;3.28;;;;;;;19.43;100.00;96007.34;1022760;29;20079;-76
2021/08/22 07:27:55;;;;;;;5.22;3.50;;;;;;;19.45;100.00;95997.16;1019708;29;20020;-76
2021/08/22 07:28:25;;;;;;;4.45;3.97;;;;;;;19.58;100.00;96013.28;1019093;29;20027;-76
2021/08/22 07:28:56;;;;;;;3.65;3.35;;;;;;;19.50;100.00;96001.53;1030470;28;20018;-78
2021/08/22 07:29:26;;;;;;;4.20;3.80;;;;;;;19.49;100.00;96006.09;1027202;28;20015;-77
2021/08/22 07:29:57;;;;;;;5.00;3.88;;;;;;;19.45;100.00;96013.13;1014570;29;20068;-76
2021/08/22 07:30:27;;;;;;;4.18;3.72;;;;;;;19.31;100.00;95977.88;1021625;29;20074;-77
2021/08/22 07:31:04;;;;;;;4.82;3.65;;;;;;;19.31;100.00;96007.97;1019269;29;20028;-77
2021/08/22 07:31:36;;;;;;;4.43;3.95;;;;;;;19.28;100.00;96016.56;1019767;28;20031;-77
2021/08/22 07:32:07;;;;;;;4.50;3.78;;;;;;;19.18;100.00;95995.56;1016684;29;20020;-77
2021/08/22 07:32:38;;;;;;;5.30;3.55;;;;;;;19.37;100.00;96023.75;1014552;29;20020;-77
2021/08/22 07:33:09;;;;;;;5.53;3.75;;;;;;;19.41;100.00;96017.50;1020822;28;20031;-77
2021/08/22 07:33:39;;;;;;;4.65;3.35;;;;;;;19.31;100.00;96004.50;1022642;29;20114;-77
2021/08/22 07:34:10;;;;;;;4.85;3.45;;;;;;;19.16;100.00;95987.13;1014657;29;20591;-78
2021/08/22 07:34:40;;;;;;;3.72;3.22;;;;;;;19.17;100.00;95979.91;1022365;29;20453;-77
2021/08/22 07:35:14;;;;;;;3.85;3.47;;;;;;;19.38;100.00;96004.03;1025457;28;20460;-77
2021/08/22 07:35:44;;;;;;;4.78;3.55;;;;;;;19.47;100.00;96007.50;1025438;28;20026;-78
2021/08/22 07:36:15;;;;;;;3.63;3.10;;;;;;;19.30;100.00;95993.06;1025944;28;20041;-77
2021/08/22 07:36:45;;;;;;;4.53;3.70;;;;;;;19.31;100.00;96009.81;1014507;29;20072;-76
2021/08/22 07:37:15;;;;;;;4.00;3.17;;;;;;;18.93;100.00;95967.81;1018538;29;20039;-76
2021/08/22 07:37:46;;;;;;;3.50;3.20;;;;;;;19.21;100.00;96004.78;1018337;29;20028;-77
2021/08/22 07:38:16;;;;;;;4.60;3.17;;;;;;;19.15;100.00;95996.19;1014642;29;20183;-77
2021/08/22 07:38:47;;;;;;;4.40;3.40;;;;;;;19.19;100.00;96004.34;1018127;29;20031;-78
2021/08/22 07:39:17;;;;;;;3.85;3.15;;;;;;;19.07;100.00;96008.38;1018716;28;20023;-76
2021/08/22 07:39:48;;;;;;;4.97;3.55;;;;;;;18.98;100.00;95991.63;1018011;29;20024;-77
2021/08/22 07:40:19;;;;;;;4.28;3.55;;;;;;;19.08;100.00;96017.94;1014608;29;20529;-76
2021/08/22 07:40:49;;;;;;;4.00;3.60;;;;;;;18.87;100.00;95998.31;1014573;29;20026;-77
2021/08/22 07:41:20;;;;;;;5.53;3.33;;;;;;;19.02;100.00;96000.56;1015630;29;20028;-77
2021/08/22 07:41:50;;;;;;;4.00;3.45;;;;;;;19.04;100.00;95976.28;1019154;29;20027;-78
2021/08/22 07:42:21;;;;;;;6.85;3.42;;;;;;;19.16;100.00;95987.13;1016198;29;20035;-78
2021/08/22 07:42:51;;;;;;;4.95;3.00;;;;;;;19.32;100.00;96011.41;1022285;29;20020;-77
2021/08/22 07:43:22;;;;;;;5.63;3.53;;;;;;;19.27;100.00;95993.69;1022765;28;20023;-78
2021/08/22 07:43:52;;;;;;;4.80;3.42;;;;;;;19.24;100.00;95998.84;1021858;29;20054;-78
2021/08/22 07:44:23;;;;;;;5.32;3.30;;;;;;;19.25;100.00;96006.53;1018929;29;20075;-77
2021/08/22 07:44:54;;;;;;;4.30;3.25;;;;;;;19.21;100.00;95989.59;1023108;28;20047;-78
2021/08/22 07:45:25;;;;;;;4.00;3.13;;;;;;;19.17;100.00;95987.91;1023194;29;20501;-77
2021/08/22 07:45:55;;;;;;;3.88;3.20;;;;;;;19.23;100.00;95989.31;1022734;29;20279;-83
2021/08/22 07:46:26;;;;;;;3.50;3.20;;;;;;;19.28;100.00;96000.59;1018659;29;20059;-77
2021/08/22 07:46:56;;;;;;;4.68;3.60;;;;;;;19.17;100.00;96001.97;1018775;29;20394;-78
2021/08/22 07:47:26;;;;;;;4.32;3.42;;;;;;;19.10;100.00;96004.31;1022565;29;20027;-78
2021/08/22 07:47:57;;;;;;;5.38;3.63;;;;;;;19.00;100.00;95997.41;1019233;28;20024;-78
2021/08/22 07:48:28;;;;;;;3.97;3.58;;;;;;;18.63;100.00;95948.19;1031132;28;20053;-77
2021/08/22 07:48:59;;;;;;;6.70;3.70;;;;;;;18.95;100.00;96002.09;1027196;28;20535;-79
2021/08/22 07:49:29;;;;;;;4.15;3.75;;;;;;;19.04;100.00;96013.53;1031791;28;20030;-78
2021/08/22 07:49:59;;;;;;;7.82;3.50;;;;;;;18.91;100.00;95995.81;1031400;28;20046;-77
2021/08/22 07:50:30;;;;;;;4.22;3.40;;;;;;;18.89;100.00;96012.09;1030154;28;20018;-77
2021/08/22 07:51:00;;;;;;;3.95;3.13;;;;;;;19.05;100.00;96018.56;1024526;28;20015;-79
2021/08/22 07:51:31;;;;;;;3.42;2.85;;;;;;;19.00;100.00;96000.06;1015871;29;20020;-79
2021/08/22 07:52:01;;;;;;;4.03;3.38;;;;;;;19.11;100.00;96015.72;1015745;29;20083;-78
2021/08/22 07:52:33;;;;;;;3.67;3.28;;;;;;;19.16;100.00;96018.25;1015939;29;20387;-79
2021/08/22 07:53:03;;;;;;;4.22;3.78;;;;;;;19.19;100.00;96012.31;1022722;29;20055;-78
2021/08/22 07:53:36;;;;;;;4.97;3.22;;;;;;;19.12;100.00;96012.00;1028368;28;20099;-76
2021/08/22 07:54:06;;;;;;;4.03;3.42;;;;;;;18.79;100.00;95993.75;1026980;28;20038;-79
2021/08/22 07:54:37;;;;;;;3.85;3.45;;;;;;;19.00;100.00;96009.94;1024079;29;20020;-78
2021/08/22 07:55:08;;;;;;;8.63;6.05;;;;;;;19.09;100.00;95997.44;1020748;29;20027;-78
2021/08/22 07:55:38;;;;;;;5.72;4.65;;;;;;;19.06;100.00;95982.88;1016227;29;20044;-77
2021/08/22 07:56:09;;;;;;;5.82;3.83;;;;;;;19.22;100.00;95995.75;1016023;29;20020;-77
2021/08/22 07:56:40;;;;;;;4.22;3.40;;;;;;;19.36;100.00;96007.03;1021152;29;20024;-79
2021/08/22 07:57:11;;;;;;;3.90;3.20;;;;;;;19.33;100.00;96007.63;1023334;29;20031;-78
2021/08/22 07:57:41;;;;;;;8.35;4.85;;;;;;;19.33;100.00;96001.53;1023783;28;20038;-79
2021/08/22 07:58:12;;;;;;;9.25;5.25;;;;;;;19.37;100.00;95997.94;1023817;29;20019;-77
2021/08/22 07:58:42;;;;;;;5.57;4.30;;;;;;;19.30;100.00;96000.28;1015583;29;20032;-77
2021/08/22 07:59:13;;;;;;;4.18;3.70;;;;;;;19.41;100.00;95993.53;1015790;29;20020;-78
2021/08/22 07:59:44;;;;;;;4.40;3.40;;;;;;;19.11;100.00;95967.84;1011809;29;20025;-79
2021/08/22 08:00:15;;;;;;;3.20;2.90;;;;;;;19.29;100.00;96014.69;1019190;29;20016;-78
2021/08/22 08:00:46;;;;;;;3.55;3.10;;;;;;;19.27;100.00;95998.22;1019793;29;20699;-78
2021/08/22 08:01:16;;;;;;;4.20;3.60;;;;;;;19.27;100.00;96004.34;1019959;29;20024;-78
2021/08/22 08:01:47;;;;;;;4.68;3.20;;;;;;;19.54;100.00;96016.56;1012965;29;20009;-78
2021/08/22 08:02:17;;;;;;;4.00;3.45;;;;;;;19.54;100.00;96008.56;1015106;29;20186;-79
2021/08/22 08:02:47;;;;;;;5.50;3.20;;;;;;;19.44;100.00;95995.59;1016175;29;20073;-79
2021/08/22 08:03:18;;;;;;;3.40;3.10;;;;;;;19.62;100.00;96009.69;1015867;29;20039;-78
2021/08/22 08:03:48;;;;;;;4.13;3.40;;;;;;;19.73;100.00;96007.53;1019005;29;20031;-79
2021/08/22 08:04:19;;;;;;;3.97;2.92;;;;;;;19.51;100.00;95979.91;1019528;29;20032;-79
2021/08/22 08:04:51;;;;;;;4.47;3.17;;;;;;;19.65;100.00;95993.13;1016738;29;20032;-77
2021/08/22 08:05:21;;;;;;;3.47;2.97;;;;;;;19.60;100.00;95992.47;1025194;28;20026;-78
2021/08/22 08:05:54;;;;;;;3.80;3.13;;;;;;;19.50;100.00;95991.66;1039246;28;20025;-78
2021/08/22 08:06:24;;;;;;;5.13;3.53;;;;;;;19.52;100.00;96000.13;1039287;28;20380;-77
2021/08/22 08:06:54;;;;;;;4.80;3.35;;;;;;;19.61;100.00;96000.13;1035176;28;20029;-77
2021/08/22 08:07:25;;;;;;;7.13;3.30;;;;;;;19.70;100.00;95986.84;1032489;28;20393;-79
2021/08/22 08:07:55;;;;;;;3.72;3.28;;;;;;;19.51;100.00;95982.59;1028549;28;20027;-79
2021/08/22 08:08:26;;;;;;;4.72;3.22;;;;;;;19.68;100.00;96002.34;1020585;29;20020;-78
2021/08/22 08:08:56;;;;;;;3.75;3.35;;;;;;;19.84;100.00;96008.75;1023749;28;20044;-79
2021/08/22 08:09:27;;;;;;;3.88;3.45;;;;;;;19.77;100.00;96006.56;1024605;29;20019;-78
2021/08/22 08:10:00;;;;;;;4.57;3.20;;;;;;;19.83;100.00;95982.47;1020217;29;20099;-79
2021/08/22 08:10:30;;;;;;;5.18;3.35;;;;;;;20.08;100.00;96012.81;1020478;29;20023;-77
2021/08/22 08:11:02;;;;;;;5.13;3.53;;;;;;;20.19;100.00;96009.50;1024825;28;20023;-78
2021/08/22 08:11:32;;;;;;;3.85;3.30;;;;;;;20.30;100.00;95998.50;1024419;28;20020;-77
2021/08/22 08:12:03;;;;;;;8.75;3.50;;;;;;;20.17;100.00;95987.72;1024192;29;20020;-78
2021/08/22 08:12:34;;;;;;;11.77;3.65;;;;;;;20.24;100.00;95987.22;1020751;29;20072;-79
2021/08/22 08:13:04;;;;;;;5.00;3.50;;;;;;;20.45;100.00;96004.06;1020142;29;20027;-77
2021/08/22 08:13:35;;;;;;;4.03;3.00;;;;;;;20.40;100.00;96001.59;1020316;29;20028;-78
2021/08/22 08:14:05;;;;;;;6.03;3.60;;;;;;;20.52;100.00;96003.59;1019628;29;20031;-78
2021/08/22 08:14:36;;;;;;;3.53;3.00;;;;;;;20.57;100.00;95995.44;1020468;29;20107;-78
2021/08/22 08:15:07;;;;;;;4.47;3.33;;;;;;;20.49;100.00;95973.03;1024447;28;20039;-78
2021/08/22 08:15:37;;;;;;;4.38;2.95;;;;;;;20.63;100.00;95988.84;1024227;29;20030;-78
2021/08/22 08:16:08;;;;;;;4.53;3.30;;;;;;;20.74;100.00;95997.25;1027783;28;20011;-78
2021/08/22 08:16:38;;;;;;;4.15;3.10;;;;;;;20.82;100.00;95999.09;1024265;29;20130;-78
2021/08/22 08:17:09;;;;;;;3.75;3.17;;;;;;;20.79;100.00;95997.09;1024271;29;20027;-78
2021/08/22 08:17:39;;;;;;;4.88;3.20;;;;;;;20.68;100.00;96001.19;1024106;28;20067;-77
2021/08/22 08:18:10;;;;;;;3.63;2.70;;;;;;;20.55;100.00;96004.84;1021919;28;20537;-77
2021/08/22 08:18:40;;;;;;;3.70;3.15;;;;;;;20.60;100.00;95997.47;1024830;28;20023;-79
2021/08/22 08:19:11;;;;;;;5.68;3.25;;;;;;;20.61;100.00;96006.25;1025381;28;20027;-78
2021/08/22 08:19:44;;;;;;;3.40;2.83;;;;;;;20.74;100.00;96002.59;1022048;29;20663;-79
2021/08/22 08:20:14;;;;;;;3.38;3.00;;;;;;;20.81;100.00;96002.09;1016135;29;20035;-78
2021/08/22 08:20:45;;;;;;;3.55;3.22;;;;;;;20.74;100.00;95994.59;1019860;28;20032;-79
2021/08/22 08:21:15;;;;;;;4.03;2.97;;;;;;;20.71;100.00;95979.22;1021654;29;20034;-79
2021/08/22 08:21:46;;;;;;;4.45;3.15;;;;;;;20.82;100.00;96003.66;1021161;29;20024;-79
2021/08/22 08:22:16;;;;;;;3.30;3.00;;;;;;;20.81;100.00;95964.75;1024525;29;20110;-78
2021/08/22 08:22:47;;;;;;;4.15;3.30;;;;;;;21.06;100.00;96006.50;1019054;29;20357;-80
2021/08/22 08:23:17;;;;;;;5.13;3.58;;;;;;;21.02;100.00;96010.91;1021048;29;20478;-79
2021/08/22 08:23:48;;;;;;;4.20;3.10;;;;;;;20.91;100.00;95994.50;1024801;28;20051;-78
2021/08/22 08:24:18;;;;;;;4.68;3.10;;;;;;;20.93;100.00;96002.97;1018429;29;20020;-78
2021/08/22 08:24:49;;;;;;;3.13;2.83;;;;;;;21.00;100.00;96010.47;1020825;29;20403;-78
2021/08/22 08:25:19;;;;;;;5.10;3.10;;;;;;;20.96;100.00;96012.22;1018795;29;20576;-78
2021/08/22 08:25:52;;;;;;;3.50;3.10;;;;;;;21.07;100.00;95991.28;1024870;29;20533;-78
2021/08/22 08:26:22;;;;;;;4.30;3.17;;;;;;;21.19;100.00;95997.50;1026079;28;20091;-79
2021/08/22 08:26:53;;;;;;;3.95;3.55;;;;;;;21.27;100.00;96001.19;1020683;29;20517;-78
2021/08/22 08:27:23;;;;;;;4.07;3.28;;;;;;;21.28;100.00;95989.41;1021073;28;20421;-79
2021/08/22 08:27:54;;;;;;;7.50;3.40;;;;;;;21.26;100.00;95999.63;1016939;29;20024;-79
2021/08/22 08:28:24;;;;;;;4.80;3.20;;;;;;;21.36;100.00;96007.28;1021340;29;20107;-78
2021/08/22 08:28:55;;;;;;;4.40;3.00;;;;;;;21.29;100.00;96009.63;1020390;29;20039;-78
2021/08/22 08:29:25;;;;;;;5.13;3.00;;;;;;;21.45;100.00;96004.53;1017086;28;20024;-78
2021/08/22 08:29:56;;;;;;;3.13;2.78;;;;;;;21.54;100.00;96015.16;1020482;29;20075;-78
2021/08/22 08:30:26;;;;;;;4.13;3.00;;;;;;;21.71;100.00;96008.91;1021272;29;20027;-79
2021/08/22 08:30:57;;;;;;;4.15;3.42;;;;;;;21.61;100.00;95989.50;1022461;29;20035;-78
2021/08/22 08:31:28;;;;;;;3.30;3.00;;;;;;;21.86;100.00;96008.28;1022643;28;20019;-79
2021/08/22 08:31:58;;;;;;;4.00;2.78;;;;;;;21.99;100.00;96014.47;1020417;29;20043;-79
2021/08/22 08:32:29;;;;;;;2.63;2.42;;;;;;;22.04;100.00;96008.94;1023478;28;20077;-78
2021/08/22 08:32:59;;;;;;;3.75;3.35;;;;;;;22.00;100.00;95986.63;1024646;28;20031;-79
2021/08/22 08:33:30;;;;;;;3.72;3.22;;;;;;;22.20;100.00;95990.38;1029317;28;20042;-77
2021/08/22 08:34:00;;;;;;;3.33;2.78;;;;;;;22.07;100.00;95993.00;1023631;29;20038;-79
2021/08/22 08:34:33;;;;;;;3.42;3.03;;;;;;;22.08;100.00;96009.81;1021465;29;20019;-78
2021/08/22 08:35:04;;;;;;;3.88;2.80;;;;;;;22.12;100.00;95986.66;1024715;28;20024;-78
2021/08/22 08:35:35;;;;;;;3.22;2.92;;;;;;;22.36;100.00;96008.13;1034020;28;20121;-79
2021/08/22 08:36:08;;;;;;;2.72;2.53;;;;;;;22.09;100.00;96001.47;1028950;28;20019;-78
2021/08/22 08:36:38;;;;;;;3.95;2.97;;;;;;;22.50;100.00;96017.75;1028753;28;20362;-78
2021/08/22 08:37:09;;;;;;;3.40;2.90;;;;;;;22.40;100.00;96015.50;1024810;29;20039;-79
2021/08/22 08:37:40;;;;;;;3.70;3.13;;;;;;;22.41;100.00;96011.72;1024011;29;20079;-78
2021/08/22 08:38:10;;;;;;;3.97;3.28;;;;;;;22.10;100.00;96002.28;1024607;29;20055;-79
2021/08/22 08:38:41;;;;;;;3.00;2.70;;;;;;;22.23;100.00;96014.59;1017129;29;20020;-78
2021/08/22 08:39:11;;;;;;;3.17;2.88;;;;;;;21.96;100.00;95999.88;1016548;29;20085;-77
2021/08/22 08:39:42;;;;;;;3.17;2.88;;;;;;;21.84;100.00;96015.88;1016868;29;20068;-78
2021/08/22 08:40:22;;;;;;;3.67;3.00;;;;;;;21.93;100.00;96015.78;1017090;29;20078;-79
2021/08/22 08:40:52;;;;;;;4.97;3.13;;;;;;;21.87;100.00;96018.66;1016568;29;20032;-79
2021/08/22 08:41:23;;;;;;;4.30;2.88;;;;;;;21.67;100.00;96005.34;1024359;29;20029;-77
2021/08/22 08:41:53;;;;;;;4.38;2.90;;;;;;;21.80;100.00;96002.38;1024775;29;20030;-76
2021/08/22 08:42:25;;;;;;;3.45;3.15;;;;;;;21.76;100.00;96009.47;1020059;29;20509;-77
2021/08/22 08:42:56;;;;;;;3.70;3.10;;;;;;;21.78;100.00;96003.81;1024221;29;20030;-76
2021/08/22 08:43:27;;;;;;;5.15;2.97;;;;;;;21.45;100.00;95990.41;1027774;28;20109;-77
2021/08/22 08:43:57;;;;;;;3.30;3.00;;;;;;;21.64;100.00;95998.75;1028535;28;20168;-77
2021/08/22 08:44:28;;;;;;;6.43;3.20;;;;;;;21.75;100.00;96018.59;1027718;28;20256;-78
2021/08/22 08:44:58;;;;;;;5.75;3.10;;;;;;;21.58;100.00;96000.06;1020101;29;20058;-77
2021/08/22 08:45:52;;;;;;;3.03;2.72;;;;;;;21.72;100.00;96019.25;1020221;29;20024;-77
2021/08/22 08:46:37;;;;;;;3.30;3.00;;;;;;;21.34;100.00;96006.81;1015178;29;20104;-79
2021/08/22 08:47:08;;;;;;;3.80;2.90;;;;;;;21.19;100.00;95978.00;1024844;28;20507;-78
2021/08/22 08:47:38;;;;;;;4.82;3.45;;;;;;;21.24;100.00;96007.19;1017830;29;20016;-78
2021/08/22 08:48:09;;;;;;;4.68;3.00;;;;;;;21.07;100.00;96012.63;1015934;29;20028;-77
2021/08/22 08:48:42;;;;;;;3.15;2.85;;;;;;;21.03;100.00;96009.03;1015734;29;20036;-78
2021/08/22 08:49:24;;;;;;;7.60;3.63;;;;;;;21.23;100.00;96016.31;1016493;29;20024;-79
2021/08/22 08:49:58;;;;;;;3.10;2.80;;;;;;;21.26;100.00;96002.31;1019990;29;20363;-78
2021/08/22 08:50:52;;;;;;;4.28;3.08;;;;;;;21.47;100.00;96009.56;1022095;29;20016;-79
2021/08/22 08:51:28;;;;;;;3.28;2.83;;;;;;;21.74;100.00;96014.38;1021544;29;20051;-78
2021/08/22 08:51:58;;;;;;;4.47;3.25;;;;;;;21.77;100.00;96015.63;1022384;28;20398;-78
2021/08/22 08:52:51;;;;;;;8.65;3.13;;;;;;;21.85;100.00;96006.75;1024101;28;20042;-78
2021/08/22 08:53:25;;;;;;;3.05;2.70;;;;;;;21.89;100.00;96021.00;1020187;28;20538;-78
2021/08/22 08:54:26;;;;;;;6.80;3.75;;;;;;;22.03;100.00;96015.38;1015323;29;20024;-78
2021/08/22 08:55:22;;;;;;;4.20;3.05;;;;;;;22.26;100.00;96013.91;1011124;29;20032;-78
2021/08/22 08:56:06;;;;;;;6.82;3.15;;;;;;;22.08;100.00;95994.56;1033262;28;20119;-78
2021/08/22 08:56:37;;;;;;;4.25;2.80;;;;;;;22.21;100.00;96016.81;1032603;28;20556;-78
2021/08/22 08:57:08;;;;;;;4.32;3.05;;;;;;;22.18;100.00;96017.47;1023001;28;20027;-78
2021/08/22 08:57:39;;;;;;;3.47;2.90;;;;;;;22.19;100.00;96007.53;1014224;29;20032;-78
2021/08/22 08:58:09;;;;;;;3.00;2.70;;;;;;;22.59;100.00;96011.19;1022075;29;20024;-78
2021/08/22 08:58:40;;;;;;;3.20;2.90;;;;;;;22.77;100.00;96010.97;1023581;29;20031;-77
2021/08/22 08:59:11;;;;;;;5.47;2.72;;;;;;;22.73;100.00;96016.19;1023576;29;20087;-78
2021/08/22 08:59:41;;;;;;;3.50;3.20;;;;;;;23.06;100.00;96001.97;1023443;28;20106;-79
2021/08/22 09:00:16;;;;;;;3.25;2.95;;;;;;;23.58;100.00;96003.88;1023224;29;20062;-78
2021/08/22 09:00:47;;;;;;;3.13;2.83;;;;;;;23.85;100.00;95993.53;1021601;28;20016;-78
2021/08/22 09:01:17;;;;;;;2.80;2.50;;;;;;;24.12;100.00;96008.81;1023410;29;20074;-78
2021/08/22 09:01:48;;;;;;;3.30;3.00;;;;;;;24.29;100.00;95996.22;1027629;28;20090;-78
2021/08/22 09:02:18;;;;;;;3.45;3.15;;;;;;;24.33;100.00;96002.47;1031228;28;20026;-77
2021/08/22 09:02:49;;;;;;;5.40;2.80;;;;;;;24.26;100.00;95996.91;1023777;28;20027;-78
2021/08/22 09:03:20;;;;;;;3.13;2.80;;;;;;;24.02;100.00;95987.88;1023358;29;20023;-78
2021/08/22 09:04:12;;;;;;;3.25;3.05;;;;;;;24.09;100.00;96012.19;1016733;29;20024;-78
2021/08/22 09:04:57;;;;;;;3.60;2.88;;;;;;;24.06;100.00;95999.47;1023650;29;20481;-77
2021/08/22 09:06:02;;;;;;;3.38;3.05;;;;;;;23.68;100.00;96005.34;1025202;28;20023;-78
2021/08/22 09:06:54;;;;;;;4.45;3.03;;;;;;;23.89;100.00;96005.13;1015772;29;20107;-78
2021/08/22 09:07:39;;;;;;;2.88;2.50;;;;;;;23.48;100.00;96007.81;1019286;28;20024;-78
2021/08/22 09:08:19;;;;;;;4.35;3.00;;;;;;;23.35;100.00;96008.97;1027924;28;20022;-77